Aviation Digital Data Service (ADDS)

Output produced by METARs form (0337 UTC 24 February 2017)
found at http://www.aviationweather.gov/adds/metars/
 
OJAQ 240300Z 36010KT CAVOK 11/05 Q1022 NOSIG
TAF OJAQ 232159Z 2400/2506 36014KT 7000 NSC
       
OJAM 240300Z 00000KT 5000 HZ NSC 06/03 Q1024 NOSIG
TAF OJAM 232159Z 2400/2506 VRB01KT 5000 HZ NSC 
     PROB30 2402/2406 3000 FU 
     BECMG 2407/2409 13005KT
       
OJAI 240300Z 00000KT 5000 BR NSC 03/02 Q1025 NOSIG
TAF OJAI 232159Z 2400/2506 VRB01KT 6000 NSC 
     TEMPO 2402/2406 0500 FG 
     BECMG 2406/2408 13008KT 7000
       
OJAM 240300Z 00000KT 5000 HZ NSC 06/03 Q1024 NOSIG
TAF OJAM 232159Z 2400/2506 VRB01KT 5000 HZ NSC 
     PROB30 2402/2406 3000 FU 
     BECMG 2407/2409 13005KT
       
OJAQ 240300Z 36010KT CAVOK 11/05 Q1022 NOSIG
TAF OJAQ 232159Z 2400/2506 36014KT 7000 NSC
       
OJAI 240300Z 00000KT 5000 BR NSC 03/02 Q1025 NOSIG
TAF OJAI 232159Z 2400/2506 VRB01KT 6000 NSC 
     TEMPO 2402/2406 0500 FG 
     BECMG 2406/2408 13008KT 7000